createdAt,value
2022-09-04T00:02:50.667Z,12.93
2022-09-04T00:05:25.117Z,14.70
2022-09-04T00:08:17.259Z,15.93
2022-09-04T00:10:55.132Z,12.37
2022-09-04T00:13:27.672Z,13.97
2022-09-04T00:16:05.814Z,12.93
2022-09-04T00:18:46.502Z,14.60
2022-09-04T00:21:20.211Z,10.80
2022-09-04T00:23:56.309Z,13.20
2022-09-04T00:26:26.776Z,13.23
2022-09-04T00:29:03.202Z,17.10
2022-09-04T00:31:54.290Z,14.63
2022-09-04T00:34:43.475Z,12.43
2022-09-04T00:37:16.421Z,16.57
2022-09-04T00:39:55.136Z,13.67
2022-09-04T00:42:52.326Z,13.40
2022-09-04T00:45:55.922Z,12.77
2022-09-04T00:48:33.475Z,11.30
2022-09-04T00:51:28.494Z,11.10
2022-09-04T00:54:09.857Z,15.67
2022-09-04T00:57:03.797Z,12.20
2022-09-04T01:00:05.924Z,18.40
2022-09-04T01:02:50.877Z,13.80
2022-09-04T01:05:40.528Z,13.03
2022-09-04T01:08:22.812Z,11.60
2022-09-04T01:11:27.712Z,14.33
2022-09-04T01:14:10.808Z,11.53
2022-09-04T01:16:54.087Z,12.73
2022-09-04T01:19:56.310Z,18.30
2022-09-04T01:22:51.636Z,8.97
2022-09-04T01:25:47.861Z,10.30
2022-09-04T01:28:27.148Z,9.60
2022-09-04T01:31:31.234Z,13.33
2022-09-04T01:34:00.735Z,15.47
2022-09-04T01:36:46.599Z,19.73
2022-09-04T01:39:13.779Z,18.37
2022-09-04T01:42:13.851Z,19.23
2022-09-04T01:44:40.946Z,14.47
2022-09-04T01:47:15.147Z,15.60
2022-09-04T01:49:53.854Z,18.57
2022-09-04T01:52:46.929Z,19.77
2022-09-04T01:55:39.034Z,10.53
2022-09-04T01:58:31.001Z,15.80
2022-09-04T02:01:29.554Z,18.83
2022-09-04T02:04:16.287Z,19.97
2022-09-04T02:07:01.417Z,20.97
2022-09-04T02:09:50.653Z,19.90
2022-09-04T02:12:38.068Z,17.90
2022-09-04T02:15:23.093Z,16.13
2022-09-04T02:17:57.758Z,18.60
2022-09-04T02:20:27.838Z,17.43
2022-09-04T02:22:54.506Z,19.03
2022-09-04T02:25:36.347Z,20.67
2022-09-04T02:28:48.654Z,12.20
2022-09-04T02:31:24.051Z,12.83
2022-09-04T02:34:29.031Z,15.67
2022-09-04T02:37:00.364Z,14.17
2022-09-04T02:39:58.564Z,13.17
2022-09-04T02:42:31.346Z,14.80
2022-09-04T02:45:19.688Z,11.90
2022-09-04T02:47:52.651Z,11.97
2022-09-04T02:50:56.735Z,19.07
2022-09-04T02:53:39.100Z,19.27
2022-09-04T02:56:31.461Z,17.47
2022-09-04T02:59:14.070Z,15.10
2022-09-04T03:01:57.646Z,19.07
2022-09-04T03:04:31.166Z,17.43
2022-09-04T03:07:09.856Z,19.47
2022-09-04T03:09:47.722Z,17.23
2022-09-04T03:12:38.748Z,14.80
2022-09-04T03:15:35.113Z,17.90
2022-09-04T03:18:21.884Z,18.13
2022-09-04T03:20:51.649Z,18.80
2022-09-04T03:23:28.159Z,18.07
2022-09-04T03:26:04.002Z,19.70
2022-09-04T03:28:52.341Z,19.73
2022-09-04T03:31:31.450Z,24.63
2022-09-04T03:34:18.304Z,19.93
2022-09-04T03:36:59.358Z,17.97
2022-09-04T03:39:32.455Z,20.17
2022-09-04T03:42:20.122Z,16.87
2022-09-04T03:44:58.876Z,20.50
2022-09-04T03:47:55.727Z,22.70
2022-09-04T03:50:33.158Z,15.70
2022-09-04T03:53:27.655Z,15.47
2022-09-04T03:56:24.683Z,16.30
2022-09-04T03:59:03.894Z,14.93
2022-09-04T04:01:41.954Z,19.77
2022-09-04T04:04:28.323Z,17.20
2022-09-04T04:07:10.088Z,15.97
2022-09-04T04:09:54.583Z,19.30
2022-09-04T04:12:25.535Z,18.33
2022-09-04T04:15:20.485Z,21.67
2022-09-04T04:18:13.405Z,14.63
2022-09-04T04:21:12.469Z,18.23
2022-09-04T04:23:58.032Z,17.37
2022-09-04T04:26:40.760Z,20.77
2022-09-04T04:29:13.826Z,13.17
2022-09-04T04:32:11.312Z,19.33
2022-09-04T04:34:54.480Z,15.53
2022-09-04T04:38:07.707Z,17.03
2022-09-04T04:41:00.061Z,18.83
2022-09-04T04:43:37.581Z,17.03
2022-09-04T04:46:25.302Z,15.20
2022-09-04T04:49:22.590Z,16.60
2022-09-04T04:51:58.310Z,15.40
2022-09-04T04:55:05.379Z,20.13
2022-09-04T04:57:53.416Z,18.47
2022-09-04T05:00:31.776Z,15.80
2022-09-04T05:03:23.385Z,18.43
2022-09-04T05:06:18.964Z,18.03
2022-09-04T05:09:05.492Z,16.07
2022-09-04T05:11:52.458Z,13.57
2022-09-04T05:14:48.179Z,16.00
2022-09-04T05:17:28.996Z,21.67
2022-09-04T05:20:20.699Z,18.57
2022-09-04T05:23:17.297Z,17.47
2022-09-04T05:25:59.874Z,19.60
2022-09-04T05:28:53.387Z,14.83
2022-09-04T05:31:26.463Z,13.30
2022-09-04T05:34:14.812Z,23.03
2022-09-04T05:37:05.668Z,13.27
2022-09-04T05:39:40.481Z,20.10
2022-09-04T05:42:21.420Z,19.30
2022-09-04T05:45:05.422Z,18.40
2022-09-04T05:48:01.573Z,22.43
2022-09-04T05:51:00.872Z,14.07
2022-09-04T05:53:39.101Z,16.87
2022-09-04T05:56:15.161Z,19.07
2022-09-04T05:59:02.790Z,19.83
2022-09-04T06:01:54.051Z,19.40
2022-09-04T06:05:02.239Z,19.03
2022-09-04T06:07:43.626Z,19.13
2022-09-04T06:10:25.399Z,18.30
2022-09-04T06:13:16.444Z,19.97
2022-09-04T06:16:04.534Z,16.20
2022-09-04T06:19:08.925Z,16.60
2022-09-04T06:21:42.542Z,17.27
2022-09-04T06:24:46.547Z,21.00
2022-09-04T06:27:35.487Z,19.23
2022-09-04T06:30:07.302Z,18.20
2022-09-04T06:33:09.511Z,18.13
2022-09-04T06:36:12.029Z,19.47
2022-09-04T06:38:59.558Z,19.67
2022-09-04T06:41:54.575Z,16.60
2022-09-04T06:44:48.724Z,15.00
2022-09-04T06:47:22.289Z,20.47
2022-09-04T06:50:19.379Z,18.87
2022-09-04T06:53:04.291Z,20.40
2022-09-04T06:55:44.628Z,18.17
2022-09-04T06:58:30.284Z,18.00
2022-09-04T07:01:11.860Z,17.60
2022-09-04T07:03:50.482Z,19.10
2022-09-04T07:06:55.854Z,19.77
2022-09-04T07:09:28.845Z,17.67
2022-09-04T07:12:23.563Z,16.57
2022-09-04T07:15:28.579Z,17.73
2022-09-04T07:18:13.020Z,20.50
2022-09-04T07:21:17.246Z,19.47
2022-09-04T07:24:02.524Z,17.67
2022-09-04T07:26:36.829Z,17.60
2022-09-04T07:29:31.423Z,21.93
2022-09-04T07:32:22.210Z,18.33
2022-09-04T07:35:07.896Z,17.17
2022-09-04T07:37:50.209Z,17.03
2022-09-04T07:40:22.180Z,16.97
2022-09-04T07:43:06.007Z,18.67
2022-09-04T07:45:47.437Z,15.00
2022-09-04T07:48:29.128Z,15.93
2022-09-04T07:51:13.677Z,19.83
2022-09-04T07:54:23.022Z,18.93
2022-09-04T07:56:58.532Z,15.53
2022-09-04T08:00:02.098Z,13.83
2022-09-04T08:02:42.278Z,15.37
2022-09-04T08:05:23.272Z,11.77
2022-09-04T08:08:03.811Z,13.85
2022-09-04T08:10:54.639Z,20.77
2022-09-04T08:13:33.441Z,11.63
2022-09-04T08:16:19.003Z,13.17
2022-09-04T08:18:57.792Z,13.23
2022-09-04T08:21:32.272Z,12.18
2022-09-04T08:24:12.845Z,13.30
2022-09-04T08:26:58.770Z,11.45
2022-09-04T08:29:34.209Z,12.85
2022-09-04T08:32:09.940Z,14.95
2022-09-04T08:34:58.179Z,13.10
2022-09-04T08:37:38.022Z,13.20
2022-09-04T08:40:24.409Z,12.27
2022-09-04T08:43:30.037Z,12.70
2022-09-04T08:46:03.346Z,11.43
2022-09-04T08:48:42.466Z,11.57
2022-09-04T08:51:24.150Z,13.95
2022-09-04T08:54:05.860Z,11.35
2022-09-04T08:56:49.577Z,13.02
2022-09-04T08:59:51.964Z,8.95
2022-09-04T09:02:27.667Z,10.85
2022-09-04T09:05:31.452Z,13.10
2022-09-04T09:08:42.011Z,10.48
2022-09-04T09:11:11.769Z,11.52
2022-09-04T09:14:17.123Z,14.10
2022-09-04T09:17:03.542Z,13.15
2022-09-04T09:19:45.694Z,13.77
2022-09-04T09:22:40.471Z,12.35
2022-09-04T09:25:16.803Z,13.43
2022-09-04T09:28:04.778Z,12.55
2022-09-04T09:31:03.550Z,10.00
2022-09-04T09:33:55.080Z,9.90
2022-09-04T09:37:20.688Z,11.00
2022-09-04T09:40:09.610Z,14.23
2022-09-04T09:42:54.835Z,10.70
2022-09-04T09:45:39.817Z,9.25
2022-09-04T09:48:21.571Z,9.88
2022-09-04T09:51:10.047Z,9.15
2022-09-04T09:53:48.987Z,10.68
2022-09-04T09:56:55.647Z,7.55
2022-09-04T09:59:43.895Z,8.27
2022-09-04T10:02:32.667Z,9.45
2022-09-04T10:05:37.977Z,8.10
2022-09-04T10:08:21.955Z,7.00
2022-09-04T10:11:18.228Z,4.28
2022-09-04T10:14:18.865Z,7.53
2022-09-04T10:17:11.006Z,5.55
2022-09-04T10:19:39.395Z,5.57
2022-09-04T10:22:35.447Z,3.72
2022-09-04T10:25:23.909Z,5.03
2022-09-04T10:28:13.035Z,9.23
2022-09-04T10:30:42.851Z,12.00
2022-09-04T10:33:37.550Z,7.03
2022-09-04T10:36:21.382Z,6.43
2022-09-04T10:39:27.046Z,4.82
2022-09-04T10:42:07.344Z,5.45
2022-09-04T10:45:03.266Z,4.75
2022-09-04T10:47:36.653Z,3.47
2022-09-04T10:50:25.121Z,6.07
2022-09-04T10:53:10.867Z,3.85
2022-09-04T10:55:37.585Z,3.83
2022-09-04T10:58:15.149Z,5.82
2022-09-04T11:01:13.218Z,5.53
2022-09-04T11:03:50.698Z,3.55
2022-09-04T11:06:39.052Z,5.65
2022-09-04T11:09:21.183Z,5.78
2022-09-04T11:11:59.223Z,4.75
2022-09-04T11:14:49.951Z,6.80
2022-09-04T11:17:24.365Z,5.35
2022-09-04T11:20:25.003Z,6.05
2022-09-04T11:23:10.404Z,5.78
2022-09-04T11:26:07.968Z,6.07
2022-09-04T11:28:40.249Z,4.80
2022-09-04T11:31:28.791Z,2.38
2022-09-04T11:34:43.252Z,3.50
2022-09-04T11:37:49.236Z,2.97
2022-09-04T11:40:42.747Z,4.60
2022-09-04T11:43:30.247Z,3.20
2022-09-04T11:46:15.790Z,2.47
2022-09-04T11:49:09.740Z,2.00
2022-09-04T11:52:02.277Z,2.92
2022-09-04T11:54:52.312Z,3.83
2022-09-04T11:57:48.975Z,2.50
2022-09-04T12:00:17.203Z,2.72
2022-09-04T12:03:11.412Z,2.30
2022-09-04T12:05:50.774Z,7.57
2022-09-04T12:08:39.319Z,4.78
2022-09-04T12:11:37.811Z,4.63
2022-09-04T12:14:22.359Z,1.90
2022-09-04T12:17:21.364Z,5.55
2022-09-04T12:20:07.748Z,3.17
2022-09-04T12:22:56.142Z,1.98
2022-09-04T12:26:01.671Z,3.47
2022-09-04T12:29:17.244Z,3.58
2022-09-04T12:32:08.550Z,2.65
2022-09-04T12:34:50.385Z,3.00
2022-09-04T12:37:35.926Z,3.28
2022-09-04T12:40:31.711Z,4.78
2022-09-04T12:43:33.974Z,3.25
2022-09-04T12:46:12.690Z,3.17
2022-09-04T12:49:04.032Z,3.97
2022-09-04T12:51:50.849Z,5.25
2022-09-04T12:54:37.169Z,3.33
2022-09-04T12:57:17.570Z,2.80
2022-09-04T13:00:00.739Z,3.25
2022-09-04T13:02:55.284Z,3.67
2022-09-04T13:05:35.855Z,3.78
2022-09-04T13:08:23.847Z,2.60
2022-09-04T13:11:00.903Z,3.38
2022-09-04T13:14:07.570Z,4.63
2022-09-04T13:16:45.480Z,2.63
2022-09-04T13:19:55.002Z,3.03
2022-09-04T13:22:33.372Z,2.85
2022-09-04T13:25:22.428Z,3.08
2022-09-04T13:28:16.955Z,2.85
2022-09-04T13:31:00.083Z,3.50
2022-09-04T13:34:13.318Z,4.72
2022-09-04T13:37:04.390Z,2.50
2022-09-04T13:40:06.526Z,2.75
2022-09-04T13:42:52.682Z,2.55
2022-09-04T13:45:41.871Z,2.95
2022-09-04T13:48:15.466Z,3.00
2022-09-04T13:50:51.032Z,3.10
2022-09-04T13:53:44.117Z,3.92
2022-09-04T13:56:19.619Z,2.75
2022-09-04T13:58:51.949Z,2.75
2022-09-04T14:01:25.655Z,3.33
2022-09-04T14:04:02.739Z,3.70
2022-09-04T14:06:31.475Z,3.58
2022-09-04T14:09:05.485Z,3.70
2022-09-04T14:11:58.135Z,3.65
2022-09-04T14:14:45.645Z,2.92
2022-09-04T14:17:12.607Z,1.67
2022-09-04T14:20:23.385Z,2.08
2022-09-04T14:23:12.215Z,1.55
2022-09-04T14:25:51.056Z,2.25
2022-09-04T14:28:46.443Z,5.60
2022-09-04T14:31:24.243Z,1.80
2022-09-04T14:34:28.345Z,4.65
2022-09-04T14:37:16.474Z,2.90
2022-09-04T14:40:05.019Z,1.38
2022-09-04T14:42:52.107Z,1.08
2022-09-04T14:45:48.956Z,1.45
2022-09-04T14:48:17.591Z,4.32
2022-09-04T14:50:49.345Z,3.72
2022-09-04T14:53:31.869Z,3.33
2022-09-04T14:56:07.349Z,2.30
2022-09-04T14:58:50.599Z,1.92
2022-09-04T15:01:25.675Z,2.72
2022-09-04T15:04:01.413Z,1.40
2022-09-04T15:06:44.502Z,3.17
2022-09-04T15:09:26.783Z,1.90
2022-09-04T15:12:21.179Z,1.70
2022-09-04T15:14:49.479Z,2.92
2022-09-04T15:17:31.206Z,3.15
2022-09-04T15:20:05.070Z,3.35
2022-09-04T15:22:31.840Z,2.55
2022-09-04T15:25:36.652Z,4.05
2022-09-04T15:28:23.093Z,1.20
2022-09-04T15:31:04.333Z,2.05
2022-09-04T15:33:31.572Z,2.45
2022-09-04T15:36:08.551Z,1.38
2022-09-04T15:38:36.866Z,1.40
2022-09-04T15:41:19.937Z,3.97
2022-09-04T15:44:19.710Z,3.95
2022-09-04T15:47:18.281Z,4.10
2022-09-04T15:49:45.007Z,4.43
2022-09-04T15:52:40.326Z,2.92
2022-09-04T15:55:32.479Z,2.15
2022-09-04T15:58:19.709Z,2.70
2022-09-04T16:01:16.850Z,5.03
2022-09-04T16:04:23.484Z,2.70
2022-09-04T16:06:58.479Z,2.28
2022-09-04T16:09:41.451Z,1.20
2022-09-04T16:12:09.950Z,4.68
2022-09-04T16:15:12.046Z,3.38
2022-09-04T16:17:50.113Z,2.65
2022-09-04T16:20:46.966Z,3.25
2022-09-04T16:23:17.157Z,2.05
2022-09-04T16:25:50.459Z,3.53
2022-09-04T16:28:34.074Z,2.55
2022-09-04T16:31:06.497Z,2.60
2022-09-04T16:33:47.653Z,2.13
2022-09-04T16:36:45.877Z,1.77
2022-09-04T16:39:39.454Z,2.17
2022-09-04T16:42:22.473Z,3.78
2022-09-04T16:45:18.267Z,1.52
2022-09-04T16:48:43.324Z,3.28
2022-09-04T16:51:29.132Z,2.92
2022-09-04T16:54:17.766Z,4.55
2022-09-04T16:56:50.296Z,5.78
2022-09-04T16:59:46.183Z,6.72
2022-09-04T17:02:48.661Z,3.33
2022-09-04T17:05:34.878Z,2.85
2022-09-04T17:08:07.764Z,5.18
2022-09-04T17:11:03.194Z,3.60
2022-09-04T17:13:58.682Z,4.03
2022-09-04T17:17:03.451Z,3.30
2022-09-04T17:20:10.185Z,3.92
2022-09-04T17:28:59.141Z,3.30
2022-09-04T17:29:13.159Z,1.75
2022-09-04T17:29:19.070Z,1.92
2022-09-04T17:31:45.345Z,2.08
2022-09-04T17:39:52.896Z,3.20
2022-09-04T17:40:40.112Z,3.25
2022-09-04T17:41:36.311Z,2.25
2022-09-04T17:44:03.480Z,4.82
2022-09-04T17:46:38.969Z,4.85
2022-09-04T17:49:12.673Z,1.92
2022-09-04T17:51:40.599Z,4.97
2022-09-04T17:54:13.445Z,5.72
2022-09-04T17:56:51.755Z,1.77
2022-09-04T17:59:25.730Z,2.42
2022-09-04T18:02:05.649Z,3.22
2022-09-04T18:05:10.432Z,2.53
2022-09-04T18:08:09.734Z,3.67
2022-09-04T18:10:46.237Z,1.85
2022-09-04T18:13:36.471Z,1.92
2022-09-04T18:16:36.263Z,4.07
2022-09-04T18:19:32.450Z,4.40
2022-09-04T18:22:26.899Z,2.53
2022-09-04T18:25:16.700Z,4.35
2022-09-04T18:27:47.220Z,5.05
2022-09-04T18:34:24.084Z,2.65
2022-09-04T18:37:15.972Z,3.28
2022-09-04T18:37:20.962Z,2.33
2022-09-04T18:39:11.564Z,5.78
2022-09-04T18:50:20.702Z,6.05
2022-09-04T18:50:28.626Z,3.28
2022-09-04T18:50:31.107Z,3.83
2022-09-04T18:53:50.577Z,6.15
2022-09-04T18:56:30.397Z,4.20
2022-09-04T18:59:11.502Z,3.78
2022-09-04T19:01:57.236Z,3.30
2022-09-04T19:04:35.819Z,3.33
2022-09-04T19:07:17.811Z,2.88
2022-09-04T19:09:58.184Z,4.13
2022-09-04T19:12:36.953Z,3.65
2022-09-04T19:15:46.045Z,3.58
2022-09-04T19:18:43.629Z,5.17
2022-09-04T19:21:14.938Z,5.13
2022-09-04T19:23:41.842Z,3.97
2022-09-04T19:26:29.436Z,3.10
2022-09-04T19:28:59.776Z,3.67
2022-09-04T19:31:35.929Z,4.93
2022-09-04T19:34:19.622Z,4.63
2022-09-04T19:37:46.800Z,2.73
2022-09-04T19:45:56.404Z,4.67
2022-09-04T19:46:09.601Z,5.57
2022-09-04T19:46:27.824Z,4.37
2022-09-04T19:49:37.954Z,4.00
2022-09-04T19:53:22.584Z,6.10
2022-09-04T19:55:37.343Z,4.17
2022-09-04T19:58:11.557Z,3.80
2022-09-04T20:00:49.113Z,2.77
2022-09-04T20:03:29.542Z,4.13
2022-09-04T20:06:21.878Z,6.53
2022-09-04T20:09:01.400Z,4.90
2022-09-04T20:11:55.470Z,3.47
2022-09-04T20:14:27.968Z,3.47
2022-09-04T20:17:30.433Z,4.07
2022-09-04T20:20:01.188Z,4.20
2022-09-04T20:22:45.441Z,3.13
2022-09-04T20:25:38.362Z,3.10
2022-09-04T20:28:15.372Z,6.17
2022-09-04T20:30:47.866Z,5.17
2022-09-04T20:33:25.446Z,4.53
2022-09-04T20:36:02.384Z,3.30
2022-09-04T20:38:37.292Z,5.03
2022-09-04T20:41:22.008Z,4.17
2022-09-04T20:44:08.929Z,9.33
2022-09-04T20:52:49.680Z,3.80
2022-09-04T20:52:50.065Z,4.20
2022-09-04T20:52:53.516Z,5.07
2022-09-04T20:55:31.537Z,3.67
2022-09-04T21:01:41.276Z,4.60
2022-09-04T21:03:19.847Z,5.10
2022-09-04T21:04:25.013Z,5.30
2022-09-04T21:07:33.236Z,6.03
2022-09-04T21:10:11.208Z,5.77
2022-09-04T21:12:41.251Z,5.90
2022-09-04T21:15:33.468Z,4.83
2022-09-04T21:18:03.032Z,6.40
2022-09-04T21:20:32.523Z,6.67
2022-09-04T21:23:12.526Z,7.63
2022-09-04T21:25:50.558Z,4.57
2022-09-04T21:28:41.418Z,6.70
2022-09-04T21:31:47.214Z,9.93
2022-09-04T21:34:43.236Z,4.17
2022-09-04T21:37:39.970Z,8.67
2022-09-04T21:40:49.379Z,8.83
2022-09-04T21:43:35.614Z,5.33
2022-09-04T21:46:29.204Z,7.30
2022-09-04T21:49:26.672Z,6.20
2022-09-04T21:52:53.442Z,9.50
2022-09-04T21:58:10.084Z,7.40
2022-09-04T22:02:36.343Z,5.90
2022-09-04T22:02:45.890Z,7.63
2022-09-04T22:05:01.566Z,8.43
2022-09-04T22:12:37.769Z,7.63
2022-09-04T22:13:39.426Z,7.20
2022-09-04T22:14:00.141Z,7.77
2022-09-04T22:16:42.398Z,10.17
2022-09-04T22:19:17.942Z,9.60
2022-09-04T22:22:15.366Z,8.20
2022-09-04T22:25:19.422Z,8.17
2022-09-04T22:28:08.839Z,7.03
2022-09-04T22:31:11.910Z,7.57
2022-09-04T22:34:16.669Z,9.07
2022-09-04T22:37:02.564Z,7.40
2022-09-04T22:39:57.737Z,9.00
2022-09-04T22:43:09.293Z,8.33
2022-09-04T22:46:11.332Z,8.03
2022-09-04T22:49:13.022Z,11.10
2022-09-04T22:51:55.144Z,10.93
2022-09-04T22:54:21.939Z,7.57
2022-09-04T22:57:01.328Z,10.50
2022-09-04T23:00:19.440Z,7.23
2022-09-04T23:03:07.916Z,8.83
2022-09-04T23:08:12.268Z,9.23
2022-09-04T23:13:54.866Z,10.43
2022-09-04T23:13:57.714Z,11.07
2022-09-04T23:15:28.768Z,12.00
2022-09-04T23:20:46.901Z,8.67
2022-09-04T23:26:50.367Z,11.77
2022-09-04T23:26:54.015Z,10.53
2022-09-04T23:27:52.468Z,6.13
2022-09-04T23:30:25.585Z,8.23
2022-09-04T23:33:16.101Z,9.07
2022-09-04T23:36:00.225Z,8.40
2022-09-04T23:38:50.004Z,7.27
2022-09-04T23:41:55.678Z,9.97
2022-09-04T23:44:57.827Z,7.20
2022-09-04T23:47:55.059Z,6.43
2022-09-04T23:51:17.935Z,8.37
2022-09-04T23:54:26.351Z,9.07
2022-09-04T23:57:26.236Z,7.73
